Time;durP1;ratioP1;P1;durP2;ratioP2;P2;SDS_P1;SDS_P2;PMS_P1;PMS_P2;Temp;Humidity;BMP_temperature;BMP_pressure;BME280_temperature;BME280_humidity;BME280_pressure;Samples;Min_cycle;Max_cycle;Signal;HPM_P1;HPM_P2
2022/03/29 00:00:38;;;;;;;1.60;0.80;;;10.10;63.10;;;;;;5013005;28;20836;-69
2022/03/29 00:03:08;;;;;;;0.40;0.30;;;10.20;62.60;;;;;;5013442;28;20385;-69
2022/03/29 00:05:38;;;;;;;0.50;0.40;;;10.00;62.40;;;;;;5013396;28;20472;-69
2022/03/29 00:08:04;;;;;;;1.02;0.93;;;10.10;62.60;;;;;;5013005;28;20417;-69
2022/03/29 00:10:30;;;;;;;0.40;0.30;;;10.10;62.90;;;;;;5012381;28;20412;-68
2022/03/29 00:12:56;;;;;;;0.40;0.30;;;10.10;62.90;;;;;;5011555;28;20846;-69
2022/03/29 00:15:23;;;;;;;0.70;0.70;;;10.10;62.90;;;;;;5010817;28;20880;-68
2022/03/29 00:17:49;;;;;;;0.40;0.30;;;10.00;63.40;;;;;;5011138;28;20415;-69
2022/03/29 00:20:17;;;;;;;0.40;0.20;;;10.00;63.20;;;;;;5011912;28;20873;-68
2022/03/29 00:22:43;;;;;;;0.80;0.70;;;10.00;63.10;;;;;;5012441;28;20454;-68
2022/03/29 00:25:10;;;;;;;0.40;0.20;;;10.10;64.40;;;;;;5011655;28;20384;-68
2022/03/29 00:27:36;;;;;;;0.40;0.20;;;10.20;63.20;;;;;;5012394;28;20883;-68
2022/03/29 00:30:04;;;;;;;0.50;0.43;;;10.20;63.00;;;;;;5011326;28;20936;-69
2022/03/29 00:32:30;;;;;;;0.50;0.50;;;10.20;62.90;;;;;;5012397;28;20421;-68
2022/03/29 00:34:55;;;;;;;0.40;0.20;;;10.20;62.30;;;;;;5012221;28;20751;-68
2022/03/29 00:37:21;;;;;;;0.40;0.30;;;10.00;63.00;;;;;;5011847;28;20464;-69
2022/03/29 00:39:47;;;;;;;0.40;0.20;;;9.90;65.10;;;;;;5012080;28;20381;-68
2022/03/29 00:42:13;;;;;;;1.60;1.50;;;9.90;65.80;;;;;;5011601;28;20918;-69
2022/03/29 00:44:38;;;;;;;0.40;0.30;;;9.80;66.40;;;;;;5012120;28;20881;-69
2022/03/29 00:47:05;;;;;;;0.40;0.40;;;9.80;66.80;;;;;;5010207;28;20404;-69
2022/03/29 00:49:31;;;;;;;0.90;0.90;;;9.80;66.30;;;;;;5012297;28;20393;-69
2022/03/29 00:52:01;;;;;;;0.40;0.40;;;9.90;66.60;;;;;;5012091;28;20408;-68
2022/03/29 00:54:29;;;;;;;0.40;0.30;;;9.90;66.50;;;;;;5006165;28;20753;-69
2022/03/29 00:57:00;;;;;;;0.40;0.30;;;9.80;66.90;;;;;;4997846;28;20413;-69
2022/03/29 00:59:26;;;;;;;0.40;0.28;;;9.70;67.70;;;;;;5008108;28;20391;-69
2022/03/29 01:01:53;;;;;;;0.40;0.40;;;9.80;67.80;;;;;;4992014;28;20839;-69
2022/03/29 01:04:22;;;;;;;0.40;0.30;;;9.70;68.50;;;;;;4991651;28;20536;-69
2022/03/29 01:06:48;;;;;;;0.50;0.50;;;9.70;67.90;;;;;;4992080;28;20405;-68
2022/03/29 01:09:14;;;;;;;0.45;0.40;;;9.80;68.50;;;;;;4930057;28;1873664;-68
2022/03/29 01:11:40;;;;;;;0.40;0.40;;;9.80;67.60;;;;;;5012076;28;20826;-69
2022/03/29 01:14:06;;;;;;;0.40;0.40;;;9.80;67.60;;;;;;5012411;28;20467;-69
2022/03/29 01:19:19;;;;;;;0.40;0.40;;;9.80;67.80;;;;;;5012560;28;20389;-68
2022/03/29 01:21:59;;;;;;;0.40;0.20;;;9.90;67.40;;;;;;5011865;28;20504;-68
2022/03/29 01:24:25;;;;;;;1.70;0.50;;;9.90;66.90;;;;;;5012460;28;20460;-69
2022/03/29 01:26:53;;;;;;;0.80;0.70;;;9.90;66.40;;;;;;5010322;28;20400;-69
2022/03/29 01:29:20;;;;;;;0.40;0.30;;;9.90;66.90;;;;;;5012504;28;20381;-69
2022/03/29 01:31:48;;;;;;;0.40;0.23;;;9.90;67.10;;;;;;5011866;28;20391;-68
2022/03/29 01:34:14;;;;;;;0.40;0.30;;;9.90;67.10;;;;;;5012484;28;20425;-69
2022/03/29 01:36:40;;;;;;;0.40;0.20;;;9.90;66.90;;;;;;5012026;28;20467;-69
2022/03/29 01:39:06;;;;;;;1.15;1.08;;;9.90;66.70;;;;;;5011246;28;20416;-69
2022/03/29 01:41:32;;;;;;;0.50;0.45;;;9.90;67.30;;;;;;5012092;28;20385;-69
2022/03/29 01:43:59;;;;;;;0.90;0.90;;;9.80;67.20;;;;;;5011355;28;20381;-69
2022/03/29 01:46:25;;;;;;;0.40;0.40;;;9.90;67.80;;;;;;5010689;28;20405;-69
2022/03/29 01:48:51;;;;;;;0.40;0.20;;;9.80;68.20;;;;;;5011931;28;20388;-69
2022/03/29 01:51:17;;;;;;;0.40;0.30;;;9.90;68.20;;;;;;5010793;28;20664;-69
2022/03/29 01:53:46;;;;;;;0.40;0.20;;;9.90;68.60;;;;;;5011542;28;20468;-69
2022/03/29 01:56:11;;;;;;;0.45;0.43;;;9.90;68.10;;;;;;5010862;28;20820;-69
2022/03/29 01:58:37;;;;;;;1.00;0.50;;;9.80;68.40;;;;;;5012221;28;20397;-69
2022/03/29 02:01:03;;;;;;;0.90;0.90;;;9.90;68.70;;;;;;5011342;28;20381;-69
2022/03/29 02:03:29;;;;;;;0.40;0.20;;;9.90;68.00;;;;;;5011104;28;20468;-69
2022/03/29 02:05:55;;;;;;;0.40;0.20;;;9.90;68.20;;;;;;5011888;28;20385;-69
2022/03/29 02:08:20;;;;;;;0.60;0.60;;;9.90;68.50;;;;;;5011214;28;20466;-69
2022/03/29 02:10:46;;;;;;;0.40;0.30;;;9.90;68.50;;;;;;4996064;28;20406;-69
2022/03/29 02:13:12;;;;;;;0.40;0.20;;;9.90;68.40;;;;;;4991508;28;20481;-69
2022/03/29 02:15:39;;;;;;;0.40;0.30;;;9.80;68.90;;;;;;4991107;28;20383;-68
2022/03/29 02:18:06;;;;;;;0.50;0.50;;;9.70;69.60;;;;;;4992167;28;20723;-68
2022/03/29 02:20:32;;;;;;;0.40;0.30;;;9.60;70.80;;;;;;4990489;28;20539;-69
2022/03/29 02:23:16;;;;;;;0.40;0.30;;;9.60;71.70;;;;;;4991761;28;20484;-69
2022/03/29 02:25:45;;;;;;;0.40;0.30;;;9.50;72.90;;;;;;4991053;28;20422;-69
2022/03/29 02:28:10;;;;;;;0.40;0.20;;;9.40;73.50;;;;;;4990298;28;20492;-69
2022/03/29 02:30:36;;;;;;;1.00;1.00;;;9.40;73.80;;;;;;4991073;28;20442;-69
2022/03/29 02:33:04;;;;;;;0.40;0.20;;;9.40;74.20;;;;;;4991494;28;20836;-69
2022/03/29 02:35:29;;;;;;;0.40;0.20;;;9.40;74.30;;;;;;4991507;28;20551;-69
2022/03/29 02:37:55;;;;;;;0.40;0.20;;;9.40;74.30;;;;;;4990636;28;20633;-68
2022/03/29 02:40:21;;;;;;;0.40;0.30;;;9.20;75.00;;;;;;4991512;28;20390;-69
2022/03/29 02:42:48;;;;;;;0.40;0.30;;;9.40;75.70;;;;;;4989209;28;20406;-69
2022/03/29 02:45:20;;;;;;;0.40;0.20;;;9.40;76.40;;;;;;4991157;28;20390;-68
2022/03/29 02:47:49;;;;;;;0.40;0.40;;;9.30;76.20;;;;;;4990269;28;20379;-68
2022/03/29 02:50:15;;;;;;;0.40;0.20;;;9.20;78.30;;;;;;4991289;28;20383;-68
2022/03/29 02:52:52;;;;;;;0.40;0.20;;;9.20;77.90;;;;;;4991252;28;20399;-69
2022/03/29 02:55:20;;;;;;;0.60;0.60;;;9.10;78.30;;;;;;4998885;28;20417;-69
2022/03/29 02:57:47;;;;;;;0.40;0.30;;;9.20;78.10;;;;;;5005104;28;20414;-69
2022/03/29 03:00:15;;;;;;;0.40;0.20;;;9.10;78.10;;;;;;4990229;28;20385;-69
2022/03/29 03:02:45;;;;;;;0.70;0.60;;;9.10;78.10;;;;;;4990782;28;20921;-69
2022/03/29 03:05:11;;;;;;;0.60;0.60;;;9.10;79.00;;;;;;4989023;28;20386;-69
2022/03/29 03:07:41;;;;;;;0.40;0.20;;;9.00;80.10;;;;;;4990705;28;20890;-68
2022/03/29 03:10:07;;;;;;;0.40;0.20;;;9.00;80.20;;;;;;4990117;28;20410;-68
2022/03/29 03:12:44;;;;;;;0.40;0.20;;;8.90;80.80;;;;;;4991277;28;20391;-68
2022/03/29 03:15:12;;;;;;;0.50;0.40;;;8.90;81.30;;;;;;4988092;28;20398;-68
2022/03/29 03:17:38;;;;;;;0.40;0.20;;;8.90;82.00;;;;;;4991042;28;20425;-68
2022/03/29 03:20:05;;;;;;;1.10;0.70;;;8.90;82.40;;;;;;4991400;28;20390;-68
2022/03/29 03:22:32;;;;;;;0.40;0.23;;;8.80;83.60;;;;;;4990282;28;20706;-68
2022/03/29 03:24:57;;;;;;;0.40;0.20;;;8.90;83.50;;;;;;4990428;28;20387;-69
2022/03/29 03:27:24;;;;;;;0.40;0.20;;;9.00;82.50;;;;;;4989799;28;20447;-69
2022/03/29 03:29:50;;;;;;;0.40;0.20;;;9.00;82.60;;;;;;4990596;28;20436;-69
2022/03/29 03:32:16;;;;;;;0.60;0.60;;;9.00;82.60;;;;;;4990689;28;20387;-69
2022/03/29 03:34:41;;;;;;;0.40;0.20;;;8.90;82.30;;;;;;4990552;28;20391;-69
2022/03/29 03:37:08;;;;;;;0.80;0.80;;;8.90;82.10;;;;;;4991181;28;20426;-69
2022/03/29 03:39:35;;;;;;;0.40;0.30;;;9.00;82.60;;;;;;4989313;28;20399;-69
2022/03/29 03:42:05;;;;;;;0.70;0.70;;;9.00;81.90;;;;;;4991227;28;20721;-68
2022/03/29 03:44:31;;;;;;;0.40;0.20;;;8.90;82.30;;;;;;4990471;28;20391;-69
2022/03/29 03:46:57;;;;;;;0.40;0.40;;;8.90;82.60;;;;;;4991233;28;20414;-69
2022/03/29 03:49:24;;;;;;;0.50;0.50;;;8.90;82.50;;;;;;4992261;28;20394;-68
2022/03/29 03:51:50;;;;;;;1.40;1.30;;;8.90;82.90;;;;;;5009833;28;20447;-69
2022/03/29 03:54:15;;;;;;;0.60;0.60;;;8.90;83.40;;;;;;5011049;28;20385;-69
2022/03/29 03:56:41;;;;;;;0.40;0.20;;;8.90;83.40;;;;;;5010114;28;20415;-69
2022/03/29 03:59:07;;;;;;;0.50;0.50;;;8.80;83.70;;;;;;5010802;28;20854;-70
2022/03/29 04:01:34;;;;;;;0.40;0.20;;;8.70;85.00;;;;;;5010891;28;20381;-69
2022/03/29 04:04:00;;;;;;;0.50;0.50;;;8.70;85.30;;;;;;5009523;28;20583;-68
2022/03/29 04:06:25;;;;;;;0.40;0.30;;;8.70;85.20;;;;;;5009835;28;20404;-68
2022/03/29 04:08:51;;;;;;;0.70;0.70;;;8.80;84.30;;;;;;5009352;28;20397;-69
2022/03/29 04:11:18;;;;;;;0.40;0.20;;;8.90;83.90;;;;;;5009657;28;20423;-68
2022/03/29 04:13:43;;;;;;;1.00;0.90;;;8.90;83.30;;;;;;5010547;28;20461;-68
2022/03/29 04:16:09;;;;;;;0.40;0.30;;;9.00;83.30;;;;;;5009853;28;20923;-68
2022/03/29 04:18:35;;;;;;;0.40;0.20;;;8.90;83.20;;;;;;5010364;28;20767;-69
2022/03/29 04:21:01;;;;;;;0.40;0.30;;;9.00;83.40;;;;;;5009879;28;20369;-68
2022/03/29 04:23:27;;;;;;;0.40;0.30;;;8.90;83.70;;;;;;5010211;28;20435;-68
2022/03/29 04:25:54;;;;;;;0.40;0.20;;;8.90;83.80;;;;;;5010377;28;20460;-70
2022/03/29 04:28:19;;;;;;;0.40;0.20;;;8.90;84.10;;;;;;5009785;28;20393;-69
2022/03/29 04:30:46;;;;;;;1.50;0.90;;;9.00;83.50;;;;;;5010820;28;20703;-69
2022/03/29 04:33:11;;;;;;;0.40;0.30;;;9.10;83.40;;;;;;5008293;28;20776;-69
2022/03/29 04:35:37;;;;;;;0.40;0.20;;;9.10;83.00;;;;;;5010759;28;20472;-69
2022/03/29 04:38:03;;;;;;;0.40;0.20;;;9.20;83.80;;;;;;5012679;28;20438;-69
2022/03/29 04:40:28;;;;;;;0.60;0.60;;;9.20;83.00;;;;;;5013018;28;20389;-69
2022/03/29 04:42:54;;;;;;;0.40;0.20;;;9.20;82.40;;;;;;5013942;28;20377;-69
2022/03/29 04:45:20;;;;;;;0.40;0.40;;;9.10;82.60;;;;;;5012900;28;20384;-69
2022/03/29 04:47:47;;;;;;;0.80;0.80;;;9.20;82.30;;;;;;5013674;28;20391;-69
2022/03/29 04:50:15;;;;;;;0.80;0.80;;;9.20;82.10;;;;;;5013895;28;20740;-70
2022/03/29 04:52:44;;;;;;;0.40;0.20;;;9.30;82.00;;;;;;5012788;28;20396;-69
2022/03/29 04:55:11;;;;;;;1.70;0.90;;;9.30;81.60;;;;;;5014029;28;20858;-69
2022/03/29 04:57:38;;;;;;;0.40;0.20;;;9.40;81.50;;;;;;5012391;28;20912;-69
2022/03/29 05:00:05;;;;;;;0.90;0.90;;;9.30;81.30;;;;;;5013436;28;20393;-69
2022/03/29 05:02:31;;;;;;;0.40;0.30;;;9.30;82.10;;;;;;5010112;28;20525;-69
2022/03/29 05:04:57;;;;;;;0.40;0.30;;;9.40;82.20;;;;;;5013175;28;20389;-69
2022/03/29 05:07:23;;;;;;;0.40;0.30;;;9.40;81.70;;;;;;5013599;28;20443;-68
2022/03/29 05:09:50;;;;;;;0.80;0.50;;;9.40;80.90;;;;;;5011545;28;20488;-68
2022/03/29 05:12:16;;;;;;;0.40;0.40;;;9.40;81.30;;;;;;5013351;28;20801;-69
2022/03/29 05:14:43;;;;;;;0.40;0.30;;;9.40;82.60;;;;;;5012722;28;20450;-69
2022/03/29 05:17:08;;;;;;;0.50;0.40;;;9.30;81.70;;;;;;5011897;28;20409;-71
2022/03/29 05:19:34;;;;;;;0.40;0.30;;;9.40;82.20;;;;;;5011747;28;20454;-69
2022/03/29 05:22:00;;;;;;;0.68;0.68;;;9.50;81.40;;;;;;5012637;28;20393;-69
2022/03/29 05:24:26;;;;;;;0.40;0.40;;;9.40;81.50;;;;;;5008941;28;20432;-68
2022/03/29 05:26:51;;;;;;;0.40;0.22;;;9.40;81.70;;;;;;5008935;28;20946;-68
2022/03/29 05:29:18;;;;;;;0.40;0.30;;;9.40;82.80;;;;;;5009079;28;20529;-69
2022/03/29 05:31:44;;;;;;;0.40;0.20;;;9.40;83.10;;;;;;5004311;28;20477;-69
2022/03/29 05:34:09;;;;;;;0.40;0.20;;;9.40;84.10;;;;;;5012043;28;20389;-69
2022/03/29 05:36:35;;;;;;;0.40;0.20;;;9.40;82.90;;;;;;4997354;28;20454;-69
2022/03/29 05:39:03;;;;;;;0.40;0.30;;;9.40;83.90;;;;;;4992176;28;20401;-69
2022/03/29 05:41:29;;;;;;;1.60;1.30;;;9.30;85.50;;;;;;4992830;28;20394;-69
2022/03/29 05:43:55;;;;;;;0.40;0.20;;;9.40;85.30;;;;;;4992943;28;20422;-70
2022/03/29 05:49:05;;;;;;;0.47;0.47;;;9.50;84.20;;;;;;4991566;28;20386;-70
2022/03/29 05:51:31;;;;;;;0.40;0.20;;;9.60;82.80;;;;;;4993229;28;20387;-70
2022/03/29 05:54:00;;;;;;;0.40;0.20;;;9.60;82.60;;;;;;4992236;28;20390;-68
2022/03/29 05:56:25;;;;;;;1.20;1.10;;;9.70;82.40;;;;;;5007095;28;20528;-70
2022/03/29 05:58:52;;;;;;;1.00;0.85;;;9.80;82.50;;;;;;4993010;28;20804;-70
2022/03/29 06:01:20;;;;;;;2.30;0.60;;;9.70;82.10;;;;;;4992060;28;20386;-70
2022/03/29 06:03:46;;;;;;;0.70;0.70;;;9.60;82.90;;;;;;4991119;28;20394;-69
2022/03/29 06:06:13;;;;;;;0.40;0.40;;;9.80;83.00;;;;;;4991935;28;20469;-69
2022/03/29 06:08:39;;;;;;;0.40;0.30;;;9.80;83.10;;;;;;4992228;28;20483;-69
2022/03/29 06:11:07;;;;;;;0.50;0.50;;;9.90;81.80;;;;;;5009601;28;20765;-69
2022/03/29 06:13:32;;;;;;;0.50;0.28;;;9.90;81.10;;;;;;5011314;28;20757;-70
2022/03/29 06:15:58;;;;;;;0.93;0.80;;;10.10;80.60;;;;;;5012072;28;20428;-69
2022/03/29 06:18:24;;;;;;;0.40;0.40;;;10.20;78.80;;;;;;5010958;28;20439;-70
2022/03/29 06:20:51;;;;;;;0.40;0.40;;;10.30;78.00;;;;;;5012326;28;20484;-70
2022/03/29 06:23:17;;;;;;;0.80;0.70;;;10.40;76.50;;;;;;5012212;28;20385;-69
2022/03/29 06:25:44;;;;;;;0.40;0.40;;;10.50;76.30;;;;;;5010855;28;20585;-70
2022/03/29 06:28:10;;;;;;;0.40;0.40;;;10.50;77.60;;;;;;5011970;28;20480;-70
2022/03/29 06:30:38;;;;;;;0.40;0.20;;;10.60;77.30;;;;;;5011025;28;20389;-70
2022/03/29 06:33:04;;;;;;;0.40;0.40;;;10.70;74.50;;;;;;5011842;28;20389;-70
2022/03/29 06:35:31;;;;;;;0.40;0.30;;;10.90;75.10;;;;;;5010715;28;20925;-70
2022/03/29 06:37:58;;;;;;;0.40;0.20;;;11.00;73.10;;;;;;5012091;28;20432;-70
2022/03/29 06:40:26;;;;;;;1.00;1.00;;;11.30;71.70;;;;;;5011977;28;20385;-70
2022/03/29 06:42:53;;;;;;;0.80;0.80;;;11.40;72.40;;;;;;5009650;28;20977;-70
2022/03/29 06:45:19;;;;;;;1.50;1.10;;;11.50;73.50;;;;;;5011633;28;20384;-70
2022/03/29 06:47:45;;;;;;;0.40;0.30;;;11.60;68.30;;;;;;5010811;28;20389;-70
2022/03/29 06:50:12;;;;;;;1.20;1.10;;;12.00;66.60;;;;;;5011375;28;20389;-70
2022/03/29 06:52:40;;;;;;;0.93;0.82;;;12.00;69.70;;;;;;5011049;28;20393;-71
2022/03/29 06:55:07;;;;;;;0.60;0.60;;;12.10;59.90;;;;;;5011102;28;20723;-70
2022/03/29 06:57:33;;;;;;;0.40;0.40;;;13.00;53.10;;;;;;5010008;28;20428;-70
2022/03/29 06:59:59;;;;;;;1.30;1.00;;;13.20;54.20;;;;;;5010398;28;20389;-70
2022/03/29 07:02:25;;;;;;;0.40;0.30;;;13.60;48.50;;;;;;5011108;28;20435;-70
2022/03/29 07:04:52;;;;;;;0.40;0.20;;;13.70;52.20;;;;;;5010011;28;20392;-70
2022/03/29 07:07:17;;;;;;;1.00;0.60;;;14.20;43.40;;;;;;5011294;28;20415;-70
2022/03/29 07:12:30;;;;;;;0.40;0.30;;;14.60;41.20;;;;;;4991490;28;20377;-70
2022/03/29 07:14:58;;;;;;;0.40;0.20;;;14.80;40.80;;;;;;4989495;28;20437;-70
2022/03/29 07:17:24;;;;;;;0.50;0.50;;;14.90;43.00;;;;;;4991230;28;20841;-70
2022/03/29 07:19:50;;;;;;;0.45;0.43;;;14.90;40.30;;;;;;4990945;28;20437;-70
2022/03/29 07:22:18;;;;;;;0.80;0.80;;;15.00;41.80;;;;;;4990715;28;20399;-70
2022/03/29 07:24:45;;;;;;;0.40;0.30;;;14.90;42.00;;;;;;4991271;28;20461;-69
2022/03/29 07:27:10;;;;;;;0.45;0.43;;;15.30;36.40;;;;;;4990958;28;20445;-70
2022/03/29 07:29:39;;;;;;;0.88;0.80;;;15.40;37.00;;;;;;4991569;28;20390;-70
2022/03/29 07:32:05;;;;;;;0.43;0.43;;;15.50;37.00;;;;;;4989469;28;20800;-71
2022/03/29 07:34:35;;;;;;;0.40;0.30;;;15.50;37.90;;;;;;4991035;28;20387;-70
2022/03/29 07:37:02;;;;;;;1.40;1.30;;;15.70;34.90;;;;;;4990993;28;20437;-68
2022/03/29 07:39:29;;;;;;;3.90;1.10;;;15.80;35.20;;;;;;4991149;28;20394;-70
2022/03/29 07:41:55;;;;;;;0.40;0.30;;;15.90;34.50;;;;;;4991296;28;20875;-70
2022/03/29 07:44:21;;;;;;;1.40;1.30;;;16.00;34.00;;;;;;4990550;28;20418;-70
2022/03/29 07:46:47;;;;;;;0.40;0.30;;;16.10;32.90;;;;;;4991309;28;20783;-71
2022/03/29 07:49:13;;;;;;;0.40;0.30;;;16.20;32.60;;;;;;4990616;28;20382;-70
2022/03/29 07:51:39;;;;;;;0.40;0.30;;;16.30;32.30;;;;;;4990947;28;20394;-70
2022/03/29 07:54:06;;;;;;;1.40;1.30;;;16.40;32.10;;;;;;4991114;28;20808;-71
2022/03/29 07:56:32;;;;;;;1.70;1.60;;;16.30;32.10;;;;;;4990224;28;20402;-71
2022/03/29 07:58:58;;;;;;;0.40;0.30;;;16.50;32.40;;;;;;4991471;28;20386;-71
2022/03/29 08:01:24;;;;;;;0.70;0.70;;;16.60;32.30;;;;;;4990460;28;20835;-71
2022/03/29 08:03:51;;;;;;;1.40;0.70;;;16.60;32.60;;;;;;4991456;28;20391;-70
2022/03/29 08:06:17;;;;;;;0.40;0.30;;;16.70;33.30;;;;;;4990321;28;20421;-70
2022/03/29 08:08:43;;;;;;;0.40;0.20;;;16.70;33.90;;;;;;4973487;28;20405;-70
2022/03/29 08:11:09;;;;;;;0.60;0.60;;;16.70;32.40;;;;;;5008659;28;20405;-70
2022/03/29 08:13:35;;;;;;;0.60;0.60;;;16.90;32.50;;;;;;5013313;28;20776;-70
2022/03/29 08:16:04;;;;;;;0.60;0.50;;;17.00;31.90;;;;;;5013966;28;20377;-70
2022/03/29 08:18:31;;;;;;;1.40;1.00;;;17.20;31.60;;;;;;5013741;28;20446;-71
2022/03/29 08:20:57;;;;;;;1.00;1.00;;;17.20;31.30;;;;;;5014207;28;20730;-70
2022/03/29 08:23:23;;;;;;;1.10;1.00;;;17.40;31.90;;;;;;5014484;28;20404;-72
2022/03/29 08:25:50;;;;;;;0.40;0.20;;;17.40;31.50;;;;;;5013963;28;20530;-71
2022/03/29 08:28:16;;;;;;;0.40;0.30;;;17.40;31.00;;;;;;5014190;28;20404;-70
2022/03/29 08:30:43;;;;;;;0.90;0.70;;;17.30;30.70;;;;;;5013300;28;20392;-70
2022/03/29 08:33:09;;;;;;;0.50;0.50;;;17.40;31.00;;;;;;5014036;28;20381;-70
2022/03/29 08:35:39;;;;;;;0.95;0.95;;;17.60;31.30;;;;;;5012160;28;20404;-70
2022/03/29 08:38:06;;;;;;;0.80;0.70;;;17.50;31.50;;;;;;5014084;28;20486;-70
2022/03/29 08:40:32;;;;;;;0.52;0.52;;;17.50;30.90;;;;;;5013750;28;20876;-70
2022/03/29 08:43:00;;;;;;;0.70;0.70;;;17.60;31.40;;;;;;5013248;28;20499;-69
2022/03/29 08:45:28;;;;;;;0.70;0.70;;;17.60;30.30;;;;;;5013768;28;20392;-70
2022/03/29 08:47:57;;;;;;;0.50;0.50;;;17.70;30.40;;;;;;5012988;28;20472;-68
2022/03/29 08:50:36;;;;;;;0.40;0.40;;;17.60;29.90;;;;;;5013593;28;20496;-69
2022/03/29 08:53:03;;;;;;;0.50;0.50;;;17.50;30.20;;;;;;5011553;28;20490;-70
2022/03/29 08:55:29;;;;;;;0.80;0.80;;;17.60;30.50;;;;;;5013629;28;20447;-70
2022/03/29 08:57:55;;;;;;;1.00;0.90;;;17.60;30.60;;;;;;5012738;28;20420;-70
2022/03/29 09:00:24;;;;;;;0.70;0.60;;;17.70;31.30;;;;;;5012156;28;20436;-68
2022/03/29 09:02:50;;;;;;;0.50;0.50;;;17.50;30.60;;;;;;5012653;28;20404;-70
2022/03/29 09:05:30;;;;;;;1.20;0.80;;;17.70;30.80;;;;;;5012187;28;20435;-70
2022/03/29 09:07:58;;;;;;;0.67;0.67;;;17.60;30.50;;;;;;5012399;28;20463;-70
2022/03/29 09:10:44;;;;;;;0.50;0.50;;;17.50;30.40;;;;;;5013256;28;20417;-70
2022/03/29 09:13:27;;;;;;;0.70;0.70;;;17.70;30.50;;;;;;5012347;28;20597;-70
2022/03/29 09:18:58;;;;;;;0.40;0.30;;;17.80;30.70;;;;;;5287439;22;21530;-70
2022/03/29 09:21:25;;;;;;;0.60;0.60;;;17.90;31.00;;;;;;4993159;28;20422;-69
2022/03/29 09:24:05;;;;;;;0.50;0.50;;;17.80;29.30;;;;;;4991768;28;20387;-72
2022/03/29 09:26:31;;;;;;;0.40;0.20;;;17.50;29.40;;;;;;4993621;28;20478;-70
2022/03/29 09:28:57;;;;;;;0.40;0.30;;;17.50;30.00;;;;;;4992831;28;20391;-71
2022/03/29 09:31:24;;;;;;;0.40;0.30;;;17.70;30.50;;;;;;4993363;28;20401;-70
2022/03/29 09:33:51;;;;;;;0.40;0.30;;;17.80;29.70;;;;;;4993076;28;20917;-71
2022/03/29 09:36:20;;;;;;;0.40;0.40;;;17.70;29.50;;;;;;4992239;28;20407;-70
2022/03/29 09:38:52;;;;;;;0.77;0.63;;;17.70;29.80;;;;;;4991829;28;20543;-70
2022/03/29 09:41:22;;;;;;;10.60;1.90;;;17.70;30.00;;;;;;4992197;28;20689;-70
2022/03/29 09:44:06;;;;;;;1.50;1.13;;;17.60;30.00;;;;;;4992789;28;20399;-70
2022/03/29 09:46:52;;;;;;;0.80;0.80;;;17.80;29.50;;;;;;4992634;28;20410;-69
2022/03/29 09:49:20;;;;;;;0.40;0.40;;;17.60;29.90;;;;;;4992053;28;20399;-70
2022/03/29 09:51:46;;;;;;;0.90;0.70;;;17.70;30.00;;;;;;4992624;28;20650;-70
2022/03/29 09:54:12;;;;;;;0.70;0.70;;;17.80;30.10;;;;;;4992156;28;20391;-70
2022/03/29 09:56:38;;;;;;;1.20;1.20;;;17.80;29.50;;;;;;4991396;28;20411;-71
2022/03/29 09:59:16;;;;;;;0.40;0.30;;;17.80;30.00;;;;;;4992666;28;20386;-71
2022/03/29 10:01:54;;;;;;;0.70;0.60;;;18.10;30.00;;;;;;4992736;28;20387;-71
2022/03/29 10:04:21;;;;;;;0.50;0.50;;;18.20;30.50;;;;;;4991769;28;20760;-70
2022/03/29 10:06:49;;;;;;;0.40;0.30;;;18.30;30.00;;;;;;4992512;28;20887;-70
2022/03/29 10:09:27;;;;;;;0.40;0.30;;;18.20;30.00;;;;;;4994381;28;20403;-71
2022/03/29 10:11:59;;;;;;;0.40;0.30;;;18.30;31.00;;;;;;5012355;28;20384;-71
2022/03/29 10:14:28;;;;;;;0.50;0.50;;;18.50;30.00;;;;;;5011255;28;20397;-70
2022/03/29 10:16:55;;;;;;;0.98;0.98;;;18.50;30.20;;;;;;5012128;28;20404;-70
2022/03/29 10:19:22;;;;;;;0.80;0.80;;;18.30;30.70;;;;;;5014883;28;20795;-71
2022/03/29 10:21:48;;;;;;;1.90;1.30;;;18.40;31.30;;;;;;5030579;28;20755;-71
2022/03/29 10:24:17;;;;;;;3.30;1.30;;;18.40;30.90;;;;;;5031489;28;20894;-71
2022/03/29 10:26:44;;;;;;;1.20;0.70;;;18.40;30.70;;;;;;5031198;28;20406;-70
2022/03/29 10:29:10;;;;;;;0.40;0.30;;;18.50;30.80;;;;;;5031357;28;20391;-70
2022/03/29 10:31:51;;;;;;;2.05;1.52;;;18.50;30.50;;;;;;5030152;28;20477;-70
2022/03/29 10:34:26;;;;;;;0.47;0.38;;;18.50;30.80;;;;;;5031190;28;20415;-70
2022/03/29 10:37:16;;;;;;;5.50;0.90;;;18.50;30.70;;;;;;5031814;28;20735;-70
2022/03/29 10:39:46;;;;;;;0.50;0.50;;;18.50;30.70;;;;;;5030988;28;20441;-70
2022/03/29 10:42:40;;;;;;;1.10;1.00;;;18.40;31.10;;;;;;5031242;28;20398;-71
2022/03/29 10:45:11;;;;;;;0.40;0.40;;;18.60;30.60;;;;;;5030180;28;20395;-70
2022/03/29 10:47:37;;;;;;;0.40;0.30;;;18.70;31.90;;;;;;5030360;28;20434;-71
2022/03/29 10:50:06;;;;;;;0.40;0.40;;;18.70;31.80;;;;;;5030598;28;20798;-71
2022/03/29 10:53:20;;;;;;;0.63;0.57;;;18.50;31.20;;;;;;5030270;28;20736;-71
2022/03/29 10:55:46;;;;;;;0.68;0.68;;;18.60;31.20;;;;;;5030076;28;20883;-70
2022/03/29 10:58:16;;;;;;;0.70;0.70;;;18.50;31.80;;;;;;5030501;28;20379;-71
2022/03/29 11:00:46;;;;;;;1.00;0.90;;;18.70;31.30;;;;;;5030258;28;20441;-71
2022/03/29 11:03:24;;;;;;;0.80;0.80;;;18.50;31.00;;;;;;5030565;28;20748;-71
2022/03/29 11:06:17;;;;;;;3.87;1.80;;;18.50;31.10;;;;;;5029958;28;20883;-71
2022/03/29 11:08:51;;;;;;;0.60;0.60;;;18.40;31.50;;;;;;5030085;28;20875;-71
2022/03/29 11:11:43;;;;;;;0.80;0.75;;;18.80;32.10;;;;;;5011565;28;20388;-70
2022/03/29 11:14:27;;;;;;;0.40;0.40;;;18.70;31.30;;;;;;5011087;28;20389;-70
2022/03/29 11:17:13;;;;;;;1.50;1.10;;;18.90;31.10;;;;;;5010217;28;20385;-70
2022/03/29 11:19:49;;;;;;;1.30;1.20;;;18.70;31.20;;;;;;5010257;28;20424;-71
2022/03/29 11:22:25;;;;;;;1.40;1.30;;;18.80;31.70;;;;;;5011315;28;20385;-70
2022/03/29 11:25:02;;;;;;;1.90;1.80;;;18.80;31.20;;;;;;5010068;28;20393;-71
2022/03/29 11:27:32;;;;;;;0.40;0.40;;;18.70;31.30;;;;;;5010931;28;20405;-70
2022/03/29 11:30:00;;;;;;;0.40;0.40;;;18.80;31.40;;;;;;5010746;28;20713;-70
2022/03/29 11:32:26;;;;;;;0.40;0.30;;;18.70;31.90;;;;;;5010630;28;20396;-70
2022/03/29 11:34:56;;;;;;;1.17;1.13;;;18.90;33.40;;;;;;5009897;28;20376;-71
2022/03/29 11:37:28;;;;;;;0.40;0.28;;;18.90;32.00;;;;;;5010620;28;20808;-70
2022/03/29 11:39:54;;;;;;;0.50;0.50;;;18.70;32.00;;;;;;5010152;28;20477;-71
2022/03/29 11:42:20;;;;;;;1.20;1.20;;;18.70;32.00;;;;;;5010768;28;20385;-70
2022/03/29 11:44:51;;;;;;;7.00;1.10;;;18.50;31.60;;;;;;5010961;28;20388;-71
2022/03/29 11:47:18;;;;;;;0.40;0.30;;;18.30;31.20;;;;;;5012415;28;20752;-70
2022/03/29 11:49:45;;;;;;;0.80;0.80;;;18.30;32.00;;;;;;5014804;28;20492;-70
2022/03/29 11:52:19;;;;;;;0.70;0.50;;;18.40;32.00;;;;;;5013973;28;21118;-70
2022/03/29 11:54:51;;;;;;;0.40;0.30;;;18.50;31.40;;;;;;5014411;28;20816;-70
2022/03/29 11:57:31;;;;;;;9.32;1.08;;;18.30;31.70;;;;;;5014328;28;20472;-70
2022/03/29 11:59:58;;;;;;;0.60;0.60;;;18.40;32.10;;;;;;5014139;28;20395;-72
2022/03/29 12:02:25;;;;;;;0.40;0.40;;;18.50;31.90;;;;;;5014659;28;20381;-70
2022/03/29 12:04:52;;;;;;;0.40;0.30;;;18.50;32.40;;;;;;5014508;28;20495;-70
2022/03/29 12:07:44;;;;;;;0.40;0.30;;;18.50;32.30;;;;;;5013772;28;20408;-70
2022/03/29 12:10:15;;;;;;;0.40;0.30;;;18.40;31.20;;;;;;5023705;28;20485;-70
2022/03/29 12:12:50;;;;;;;0.50;0.50;;;18.40;31.90;;;;;;5034295;28;20466;-70
2022/03/29 12:15:19;;;;;;;0.40;0.30;;;18.50;31.60;;;;;;5033409;28;20375;-70
2022/03/29 12:20:57;;;;;;;0.80;0.80;;;18.40;32.40;;;;;;4999719;28;20429;-70
2022/03/29 12:23:25;;;;;;;0.40;0.40;;;18.40;32.40;;;;;;5032593;28;20395;-70
2022/03/29 12:25:51;;;;;;;0.50;0.50;;;18.50;31.90;;;;;;5033869;28;20474;-70
2022/03/29 12:28:22;;;;;;;0.50;0.50;;;18.60;32.30;;;;;;5032930;28;20445;-72
2022/03/29 12:30:49;;;;;;;0.40;0.30;;;18.70;32.20;;;;;;5033938;28;20391;-70
2022/03/29 12:33:15;;;;;;;0.88;0.85;;;18.80;32.40;;;;;;5033013;28;20379;-70
2022/03/29 12:35:41;;;;;;;1.90;1.00;;;19.10;32.10;;;;;;5033417;28;20848;-71
2022/03/29 12:38:11;;;;;;;1.30;1.20;;;19.10;31.60;;;;;;5032219;28;20466;-70
2022/03/29 12:40:39;;;;;;;1.60;1.50;;;19.10;31.70;;;;;;5033377;28;20436;-70
2022/03/29 12:43:07;;;;;;;0.70;0.60;;;19.50;31.70;;;;;;5033832;28;20474;-71
2022/03/29 12:45:34;;;;;;;0.50;0.50;;;19.60;32.70;;;;;;5032681;28;20900;-70
2022/03/29 12:48:10;;;;;;;0.45;0.43;;;19.30;32.60;;;;;;5033323;28;20435;-71
2022/03/29 12:50:36;;;;;;;0.40;0.40;;;19.40;32.00;;;;;;5032534;28;20403;-71
2022/03/29 12:53:10;;;;;;;0.63;0.63;;;19.20;31.70;;;;;;5033467;28;20775;-71
2022/03/29 12:55:38;;;;;;;0.40;0.40;;;19.10;32.00;;;;;;5032935;28;20453;-71
2022/03/29 12:58:05;;;;;;;0.40;0.25;;;18.90;33.50;;;;;;5033057;28;20475;-71
2022/03/29 13:00:39;;;;;;;0.47;0.47;;;19.00;32.90;;;;;;5032749;28;20382;-71
2022/03/29 13:03:12;;;;;;;1.25;0.52;;;19.10;33.20;;;;;;5033168;28;20405;-71
2022/03/29 13:05:38;;;;;;;0.40;0.20;;;18.80;32.90;;;;;;5031758;28;20863;-71
2022/03/29 13:08:04;;;;;;;0.43;0.43;;;18.80;32.90;;;;;;5032769;28;20498;-70
2022/03/29 13:10:33;;;;;;;0.60;0.60;;;18.70;33.20;;;;;;5018983;28;20393;-70